Time;durP1;ratioP1;P1;durP2;ratioP2;P2;SDS_P1;SDS_P2;PMS_P1;PMS_P2;Temp;Humidity;BMP_temperature;BMP_pressure;BME280_temperature;BME280_humidity;BME280_pressure;Samples;Min_cycle;Max_cycle;Signal;HPM_P1;HPM_P2
2023/11/30 00:04:10;;;;;;;5.47;4.97;;;5.30;40.60;;;;;;10085236;29;20243;-76
2023/11/30 00:09:14;;;;;;;5.07;4.57;;;5.20;40.50;;;;;;10086703;29;20283;-75
2023/11/30 00:14:17;;;;;;;4.67;4.27;;;5.10;40.70;;;;;;10090156;29;20258;-75
2023/11/30 00:19:21;;;;;;;5.27;4.77;;;5.00;40.80;;;;;;10084501;29;20231;-75
2023/11/30 00:24:25;;;;;;;5.60;5.10;;;5.00;41.10;;;;;;10084397;29;20246;-75
2023/11/30 00:29:29;;;;;;;5.93;5.30;;;5.00;41.10;;;;;;10084471;29;20246;-75
2023/11/30 00:34:33;;;;;;;4.60;4.20;;;5.00;41.00;;;;;;10084707;29;20332;-75
2023/11/30 00:39:37;;;;;;;4.70;4.30;;;5.00;40.90;;;;;;10084985;29;20737;-75
2023/11/30 00:44:40;;;;;;;4.73;4.23;;;5.10;41.00;;;;;;10083832;29;20606;-75
2023/11/30 00:49:45;;;;;;;4.47;4.07;;;5.00;41.00;;;;;;10084858;29;20239;-75
2023/11/30 00:54:48;;;;;;;5.10;4.60;;;5.10;41.00;;;;;;10082564;29;20584;-75
2023/11/30 00:59:51;;;;;;;4.50;4.10;;;5.10;41.10;;;;;;10086942;29;20609;-74
2023/11/30 01:04:56;;;;;;;4.57;4.17;;;5.10;41.00;;;;;;10089032;29;20292;-74
2023/11/30 01:09:59;;;;;;;4.70;4.30;;;5.10;40.80;;;;;;10088395;29;20613;-74
2023/11/30 01:15:02;;;;;;;4.57;4.17;;;5.10;40.70;;;;;;10088220;29;20342;-74
2023/11/30 01:20:09;;;;;;;4.70;4.30;;;5.00;40.60;;;;;;10088116;29;20270;-74
2023/11/30 01:25:12;;;;;;;4.87;4.47;;;5.00;40.60;;;;;;10087998;29;20746;-74
2023/11/30 01:30:15;;;;;;;4.07;3.77;;;4.90;40.80;;;;;;10087866;29;20277;-74
2023/11/30 01:35:20;;;;;;;4.00;3.70;;;4.90;41.00;;;;;;10084589;29;20243;-75
2023/11/30 01:40:23;;;;;;;4.83;4.43;;;4.90;41.00;;;;;;10083775;29;20613;-76
2023/11/30 01:45:26;;;;;;;4.60;4.20;;;4.90;40.90;;;;;;10078914;29;20603;-76
2023/11/30 01:50:31;;;;;;;4.93;4.53;;;4.90;41.00;;;;;;10082051;29;20235;-76
2023/11/30 01:55:34;;;;;;;4.57;4.17;;;5.00;41.00;;;;;;10081697;29;20251;-76
2023/11/30 02:00:38;;;;;;;4.10;3.63;;;5.00;40.90;;;;;;10082919;29;20299;-76
2023/11/30 02:05:43;;;;;;;4.00;3.70;;;5.00;41.00;;;;;;10081583;29;20242;-76
2023/11/30 02:10:46;;;;;;;5.07;4.57;;;5.00;40.80;;;;;;10077673;29;20266;-76
2023/11/30 02:15:49;;;;;;;5.67;5.07;;;5.00;40.70;;;;;;10080716;29;20328;-76
2023/11/30 02:20:54;;;;;;;5.20;4.60;;;5.00;40.50;;;;;;10080091;29;20771;-76
2023/11/30 02:25:58;;;;;;;3.50;3.20;;;4.90;40.50;;;;;;10082296;29;20718;-76
2023/11/30 02:31:02;;;;;;;4.37;3.97;;;4.80;40.60;;;;;;10081537;29;20703;-76
2023/11/30 02:36:06;;;;;;;4.23;3.87;;;4.80;40.80;;;;;;10080919;29;20781;-76
2023/11/30 02:41:10;;;;;;;4.30;3.90;;;4.80;40.80;;;;;;10081543;29;20231;-76
2023/11/30 02:46:14;;;;;;;4.37;3.97;;;4.90;40.80;;;;;;10087238;29;20837;-78
2023/11/30 02:51:17;;;;;;;3.70;3.40;;;4.90;41.00;;;;;;10084110;29;20329;-76
2023/11/30 02:56:22;;;;;;;4.20;3.80;;;4.90;40.90;;;;;;10080687;29;20626;-76
2023/11/30 03:01:25;;;;;;;4.30;3.90;;;4.90;40.90;;;;;;10085108;29;20234;-76
2023/11/30 03:06:28;;;;;;;4.57;3.70;;;4.90;40.80;;;;;;10086728;29;20714;-76
2023/11/30 03:11:33;;;;;;;4.43;4.03;;;4.90;40.80;;;;;;10085763;29;20245;-76
2023/11/30 03:16:36;;;;;;;4.33;4.03;;;4.80;40.70;;;;;;10084837;29;20243;-76
2023/11/30 03:21:40;;;;;;;4.27;3.80;;;4.80;40.70;;;;;;10083505;29;20238;-76
2023/11/30 03:26:44;;;;;;;4.60;4.20;;;4.80;40.80;;;;;;10085149;29;20988;-75
2023/11/30 03:31:47;;;;;;;4.30;3.90;;;4.80;40.70;;;;;;10084911;29;20257;-75
2023/11/30 03:36:51;;;;;;;4.43;4.00;;;4.80;40.70;;;;;;10087897;29;20239;-78
2023/11/30 03:41:55;;;;;;;4.80;4.40;;;4.70;40.60;;;;;;10091699;29;20235;-78
2023/11/30 03:46:59;;;;;;;5.43;4.50;;;4.80;40.60;;;;;;10086165;29;20235;-77
2023/11/30 03:52:02;;;;;;;4.80;4.40;;;4.80;40.70;;;;;;10088467;29;20335;-78
2023/11/30 03:57:07;;;;;;;4.13;3.83;;;4.70;40.50;;;;;;10088320;29;20343;-74
2023/11/30 04:02:11;;;;;;;4.83;4.33;;;4.70;40.90;;;;;;10090829;29;20266;-75
2023/11/30 04:07:14;;;;;;;5.57;4.33;;;4.70;40.50;;;;;;10087786;29;20235;-77
2023/11/30 04:12:18;;;;;;;4.70;4.20;;;4.70;40.50;;;;;;10085414;29;20239;-77
2023/11/30 04:17:23;;;;;;;4.53;4.13;;;4.70;40.40;;;;;;10080422;29;20326;-78
2023/11/30 04:22:26;;;;;;;4.77;4.37;;;4.70;40.50;;;;;;10085915;29;20330;-77
2023/11/30 04:27:30;;;;;;;3.67;3.37;;;4.70;40.30;;;;;;10083713;29;20235;-78
2023/11/30 04:32:33;;;;;;;4.90;4.50;;;4.60;40.30;;;;;;10084148;29;20253;-76
2023/11/30 04:37:37;;;;;;;6.17;4.17;;;4.60;40.50;;;;;;10085280;29;20670;-76
2023/11/30 04:42:41;;;;;;;4.47;4.07;;;4.60;40.50;;;;;;10082149;29;20325;-76
2023/11/30 04:47:44;;;;;;;4.10;3.80;;;4.50;40.50;;;;;;10081123;29;20257;-76
2023/11/30 04:52:48;;;;;;;5.17;3.90;;;4.50;40.60;;;;;;10080858;29;20608;-76
2023/11/30 04:57:53;;;;;;;4.53;4.10;;;4.50;40.70;;;;;;10081651;29;20231;-76
2023/11/30 05:02:56;;;;;;;3.70;3.03;;;4.50;40.60;;;;;;10083318;29;20239;-76
2023/11/30 05:07:59;;;;;;;3.40;3.10;;;4.50;40.70;;;;;;10082592;29;20292;-76
2023/11/30 05:13:04;;;;;;;3.93;3.63;;;4.50;40.80;;;;;;10081382;29;20310;-76
2023/11/30 05:18:08;;;;;;;5.23;4.70;;;4.50;40.80;;;;;;10077730;29;20237;-76
2023/11/30 05:23:11;;;;;;;4.20;3.80;;;4.50;40.80;;;;;;10080676;29;20767;-77
2023/11/30 05:28:16;;;;;;;3.97;3.63;;;4.50;40.80;;;;;;10083782;29;20323;-77
2023/11/30 05:33:19;;;;;;;3.90;3.57;;;4.50;40.70;;;;;;10071232;29;20253;-76
2023/11/30 05:38:23;;;;;;;3.57;3.27;;;4.50;40.80;;;;;;10078061;29;20235;-77
2023/11/30 05:43:28;;;;;;;3.83;3.50;;;4.50;40.80;;;;;;10085848;29;20305;-74
2023/11/30 05:48:32;;;;;;;3.97;3.63;;;4.50;40.80;;;;;;10084548;29;20346;-75
2023/11/30 05:53:36;;;;;;;5.07;3.97;;;4.50;40.70;;;;;;10082686;29;20250;-75
2023/11/30 05:58:41;;;;;;;7.00;6.30;;;4.50;40.60;;;;;;10083075;29;20243;-75
2023/11/30 06:03:47;;;;;;;7.10;6.40;;;4.40;40.50;;;;;;10081443;29;20253;-75
2023/11/30 06:08:51;;;;;;;6.53;5.93;;;4.30;40.70;;;;;;10086898;29;20319;-75
2023/11/30 06:13:55;;;;;;;7.03;6.43;;;4.20;41.00;;;;;;10081577;29;20334;-75
2023/11/30 06:18:59;;;;;;;6.23;5.63;;;4.10;41.10;;;;;;10083550;29;20263;-76
2023/11/30 06:24:03;;;;;;;5.60;5.03;;;4.10;41.20;;;;;;10082040;29;20239;-75
2023/11/30 06:29:10;;;;;;;7.37;6.27;;;4.10;41.70;;;;;;10095963;29;20231;-76
2023/11/30 06:34:14;;;;;;;8.17;6.60;;;4.10;41.50;;;;;;10087549;29;20238;-76
2023/11/30 06:39:18;;;;;;;5.87;5.27;;;4.10;41.20;;;;;;10091454;29;20325;-76
2023/11/30 06:44:22;;;;;;;4.90;4.07;;;4.10;41.30;;;;;;10099577;29;20744;-77
2023/11/30 06:49:25;;;;;;;4.77;4.33;;;4.10;41.30;;;;;;10090526;29;20326;-77
2023/11/30 06:54:29;;;;;;;5.20;4.70;;;4.20;41.50;;;;;;10085810;29;20791;-77
2023/11/30 06:59:34;;;;;;;4.50;4.10;;;4.30;41.60;;;;;;10089555;29;20274;-77
2023/11/30 07:04:37;;;;;;;4.90;4.33;;;4.30;41.60;;;;;;10081462;29;20510;-76
2023/11/30 07:09:40;;;;;;;4.60;4.10;;;4.30;41.50;;;;;;10085984;29;20334;-77
2023/11/30 07:14:45;;;;;;;4.57;4.17;;;4.40;41.50;;;;;;10086722;29;20626;-76
2023/11/30 07:19:53;;;;;;;4.43;4.03;;;4.40;41.20;;;;;;10083846;29;20657;-76
2023/11/30 07:24:56;;;;;;;4.27;3.87;;;4.40;41.20;;;;;;10083743;29;20242;-76
2023/11/30 07:30:01;;;;;;;4.40;4.00;;;4.30;41.20;;;;;;10086230;29;20234;-77
2023/11/30 07:35:06;;;;;;;4.40;4.00;;;4.30;41.30;;;;;;10093102;29;20330;-77
2023/11/30 07:40:10;;;;;;;5.10;4.00;;;4.30;41.30;;;;;;10085605;29;20247;-77
2023/11/30 07:45:14;;;;;;;4.23;3.83;;;4.30;41.30;;;;;;10094093;29;20239;-77
2023/11/30 07:50:18;;;;;;;4.10;3.70;;;4.30;41.20;;;;;;10071067;29;20726;-77
2023/11/30 07:55:21;;;;;;;5.07;3.97;;;4.30;41.10;;;;;;10091559;29;20818;-77
2023/11/30 08:00:26;;;;;;;5.80;4.00;;;4.20;41.30;;;;;;10091926;29;20327;-77
2023/11/30 08:05:29;;;;;;;4.40;4.00;;;4.10;41.50;;;;;;10092927;29;20246;-77
2023/11/30 08:10:33;;;;;;;4.20;3.80;;;4.20;41.60;;;;;;10078090;29;20776;-77
2023/11/30 08:15:38;;;;;;;4.53;4.13;;;4.20;41.60;;;;;;10082843;29;20637;-77
2023/11/30 08:20:43;;;;;;;4.77;4.37;;;4.30;41.80;;;;;;10083426;29;20238;-77
2023/11/30 08:25:46;;;;;;;4.87;4.47;;;4.30;41.80;;;;;;10086166;29;20241;-76
2023/11/30 08:30:51;;;;;;;4.77;4.37;;;4.40;42.10;;;;;;10089407;29;20246;-77
2023/11/30 08:35:54;;;;;;;9.90;7.57;;;4.50;42.30;;;;;;10090844;29;20245;-77
2023/11/30 08:40:57;;;;;;;5.60;5.10;;;4.50;41.70;;;;;;10087391;29;20227;-77
2023/11/30 08:46:02;;;;;;;5.17;4.70;;;4.50;41.70;;;;;;10083492;29;20235;-77
2023/11/30 08:51:08;;;;;;;5.23;4.73;;;4.60;41.70;;;;;;10084231;29;20306;-77
2023/11/30 08:56:12;;;;;;;5.00;4.60;;;4.60;41.60;;;;;;10084751;29;20230;-77
2023/11/30 09:01:16;;;;;;;4.10;3.80;;;4.60;41.60;;;;;;10085249;29;20326;-77
2023/11/30 09:06:20;;;;;;;4.43;3.97;;;4.60;41.60;;;;;;10082474;29;20249;-77
2023/11/30 09:11:23;;;;;;;4.50;4.10;;;4.60;41.70;;;;;;10084760;29;20241;-77
2023/11/30 09:16:28;;;;;;;4.30;3.97;;;4.60;41.70;;;;;;10086981;29;20277;-76
2023/11/30 09:21:31;;;;;;;3.77;3.47;;;4.70;42.40;;;;;;10082911;29;20267;-75
2023/11/30 09:26:34;;;;;;;4.00;3.57;;;4.80;41.70;;;;;;10086219;29;20243;-77
2023/11/30 09:31:42;;;;;;;5.23;4.83;;;4.80;41.60;;;;;;10088366;29;20249;-76
2023/11/30 09:36:45;;;;;;;4.27;3.87;;;4.90;41.50;;;;;;10085046;29;20809;-76
2023/11/30 09:41:48;;;;;;;5.07;4.37;;;4.90;41.60;;;;;;10084220;29;20230;-77
2023/11/30 09:46:53;;;;;;;5.23;3.73;;;5.00;41.70;;;;;;10088092;29;20223;-76
2023/11/30 09:51:56;;;;;;;4.20;3.80;;;5.00;41.90;;;;;;10081738;29;20235;-77
2023/11/30 09:57:00;;;;;;;4.43;4.03;;;5.10;41.90;;;;;;10087735;29;20333;-77
2023/11/30 10:02:09;;;;;;;4.10;3.70;;;5.20;42.10;;;;;;10088548;29;20265;-76
2023/11/30 10:07:13;;;;;;;3.60;3.30;;;5.20;42.00;;;;;;10085812;29;20239;-76
2023/11/30 10:12:19;;;;;;;11.37;10.13;;;5.40;42.20;;;;;;10087972;29;20242;-76
2023/11/30 10:17:27;;;;;;;5.93;5.33;;;5.40;42.10;;;;;;10090631;29;20648;-76
2023/11/30 10:22:31;;;;;;;5.77;5.17;;;5.50;42.70;;;;;;10094244;29;20262;-76
2023/11/30 10:27:36;;;;;;;4.83;4.37;;;5.50;42.40;;;;;;10096104;29;20825;-75
2023/11/30 10:32:41;;;;;;;4.50;4.20;;;5.50;42.40;;;;;;10096853;29;20250;-76
2023/11/30 10:37:46;;;;;;;4.03;3.73;;;5.40;42.30;;;;;;10093030;29;20855;-76
2023/11/30 10:42:50;;;;;;;4.43;4.03;;;5.40;42.40;;;;;;10089175;29;20752;-76
2023/11/30 10:47:55;;;;;;;5.13;4.30;;;5.30;43.00;;;;;;10091987;29;20785;-76
2023/11/30 10:52:59;;;;;;;5.47;4.70;;;5.30;42.70;;;;;;10088508;29;20240;-76
2023/11/30 10:58:05;;;;;;;5.00;4.50;;;5.30;43.00;;;;;;10088768;29;20262;-76
2023/11/30 11:03:10;;;;;;;4.93;4.53;;;5.40;43.10;;;;;;10087729;29;20744;-76
2023/11/30 11:08:13;;;;;;;6.20;4.70;;;5.40;43.10;;;;;;10088508;29;20242;-75
2023/11/30 11:13:23;;;;;;;4.67;4.27;;;5.40;42.70;;;;;;10086434;29;20242;-76
2023/11/30 11:18:32;;;;;;;4.93;4.50;;;5.40;43.10;;;;;;10088849;29;20243;-76
2023/11/30 11:23:38;;;;;;;6.03;4.40;;;5.40;43.10;;;;;;10085928;29;20254;-76
2023/11/30 11:28:42;;;;;;;5.23;4.73;;;5.40;42.90;;;;;;10083729;29;20265;-75
2023/11/30 11:33:46;;;;;;;5.27;4.77;;;5.30;42.90;;;;;;10083930;29;20239;-75
2023/11/30 11:38:50;;;;;;;6.20;5.00;;;5.30;43.00;;;;;;10085899;29;20343;-75
2023/11/30 11:43:54;;;;;;;5.70;5.10;;;5.30;43.00;;;;;;10086047;29;20803;-75
2023/11/30 11:48:59;;;;;;;5.43;4.80;;;5.30;43.00;;;;;;10084558;29;20730;-75
2023/11/30 11:54:02;;;;;;;5.47;4.97;;;5.30;43.00;;;;;;10084702;29;20241;-74
2023/11/30 11:59:05;;;;;;;6.10;5.50;;;5.30;43.00;;;;;;10083792;29;20329;-75
2023/11/30 12:04:10;;;;;;;7.50;5.90;;;5.30;43.00;;;;;;10085418;29;20346;-75
2023/11/30 12:09:13;;;;;;;9.10;8.20;;;5.20;42.90;;;;;;10084085;29;20291;-74
2023/11/30 12:14:16;;;;;;;7.50;6.73;;;5.20;43.20;;;;;;10085469;29;20234;-75
2023/11/30 12:19:21;;;;;;;6.87;6.00;;;5.20;43.30;;;;;;10083516;29;20330;-74
2023/11/30 12:24:24;;;;;;;7.20;6.53;;;5.20;43.40;;;;;;10085019;29;20326;-75
2023/11/30 12:29:27;;;;;;;6.10;5.50;;;5.20;43.30;;;;;;10082627;29;20238;-75
2023/11/30 12:34:32;;;;;;;6.23;5.73;;;5.20;43.40;;;;;;10080926;29;20710;-75
2023/11/30 12:39:35;;;;;;;6.17;5.57;;;5.30;43.70;;;;;;10081439;29;20310;-75
2023/11/30 12:44:38;;;;;;;6.17;5.53;;;5.30;43.30;;;;;;10080395;29;20334;-75
2023/11/30 12:49:44;;;;;;;6.07;5.57;;;5.40;43.40;;;;;;10080606;29;20333;-75
2023/11/30 12:54:49;;;;;;;6.20;5.70;;;5.40;43.30;;;;;;10081500;29;20755;-75
2023/11/30 12:59:53;;;;;;;6.27;5.67;;;5.40;43.10;;;;;;10081898;29;20239;-75
2023/11/30 13:04:57;;;;;;;6.83;6.23;;;5.40;43.10;;;;;;10082844;29;20238;-75
2023/11/30 13:10:01;;;;;;;8.70;6.53;;;5.30;43.30;;;;;;10080813;29;20246;-76
2023/11/30 13:15:06;;;;;;;6.60;5.97;;;5.40;43.40;;;;;;10082037;29;20284;-74
2023/11/30 13:20:13;;;;;;;6.77;6.17;;;5.40;43.50;;;;;;10080766;29;20330;-73
2023/11/30 13:25:17;;;;;;;7.17;6.57;;;5.40;43.60;;;;;;10081812;29;20322;-74
2023/11/30 13:30:21;;;;;;;8.67;7.77;;;5.50;43.60;;;;;;10080337;29;20318;-74
2023/11/30 13:35:25;;;;;;;11.00;10.00;;;5.60;43.50;;;;;;10082251;29;20294;-74
2023/11/30 13:40:30;;;;;;;10.37;9.33;;;5.60;43.40;;;;;;10080862;29;20582;-75
2023/11/30 13:45:34;;;;;;;9.63;8.63;;;5.60;43.20;;;;;;10080426;29;20253;-75
2023/11/30 13:50:38;;;;;;;8.53;7.70;;;5.60;43.20;;;;;;10081900;29;20238;-75
2023/11/30 13:55:56;;;;;;;8.33;7.50;;;5.70;43.30;;;;;;10081414;29;20452;-75
2023/11/30 14:00:59;;;;;;;7.00;6.40;;;5.70;43.30;;;;;;10081788;29;20656;-76
2023/11/30 14:06:05;;;;;;;6.57;6.07;;;5.80;43.40;;;;;;10077963;29;20671;-75
2023/11/30 14:11:11;;;;;;;7.50;6.70;;;5.80;43.40;;;;;;10077556;29;20326;-75
2023/11/30 14:16:15;;;;;;;6.40;5.80;;;5.80;43.50;;;;;;10077420;29;20661;-75
2023/11/30 14:21:20;;;;;;;6.60;5.97;;;5.90;43.50;;;;;;10079105;29;20657;-75
2023/11/30 14:26:25;;;;;;;9.10;8.20;;;5.90;43.50;;;;;;10078154;29;20239;-75
2023/11/30 14:31:29;;;;;;;8.73;7.87;;;5.90;43.10;;;;;;10078619;29;20242;-75
2023/11/30 14:36:33;;;;;;;8.07;5.60;;;5.70;43.00;;;;;;10078051;29;20783;-75
2023/11/30 14:41:37;;;;;;;63.57;42.57;;;5.60;43.20;;;;;;10078345;29;20270;-75
2023/11/30 14:46:41;;;;;;;34.17;24.57;;;5.50;43.10;;;;;;10079571;29;20710;-75
2023/11/30 14:51:46;;;;;;;14.73;11.63;;;5.50;43.30;;;;;;10080529;29;20243;-75
2023/11/30 14:56:50;;;;;;;11.47;10.33;;;5.40;44.30;;;;;;10100593;29;20262;-75
2023/11/30 15:01:53;;;;;;;8.97;8.00;;;5.50;43.50;;;;;;10090737;29;20316;-76
2023/11/30 15:07:00;;;;;;;7.40;6.70;;;5.50;43.40;;;;;;10091320;29;21058;-76
2023/11/30 15:12:04;;;;;;;7.03;6.40;;;5.60;43.60;;;;;;10088489;29;20243;-76
2023/11/30 15:17:09;;;;;;;6.83;6.23;;;5.60;43.40;;;;;;10087293;29;20617;-76
2023/11/30 15:22:14;;;;;;;5.40;5.00;;;5.70;43.30;;;;;;10087073;29;21036;-77
2023/11/30 15:27:17;;;;;;;5.93;5.43;;;5.70;44.70;;;;;;10084752;29;20258;-77
2023/11/30 15:32:20;;;;;;;7.30;6.70;;;5.80;44.70;;;;;;10087673;29;20319;-75
2023/11/30 15:37:25;;;;;;;7.07;6.47;;;5.90;44.10;;;;;;10086281;29;20261;-75
2023/11/30 15:42:28;;;;;;;7.43;6.83;;;5.90;43.60;;;;;;10090201;29;20244;-75
2023/11/30 15:47:31;;;;;;;7.27;6.73;;;5.90;43.50;;;;;;10088548;29;20288;-75
2023/11/30 15:52:36;;;;;;;7.07;6.40;;;5.90;43.50;;;;;;10086645;29;20243;-76
2023/11/30 15:57:39;;;;;;;7.23;6.63;;;5.90;43.80;;;;;;10091139;29;20292;-75
2023/11/30 16:02:44;;;;;;;6.53;6.00;;;5.90;43.50;;;;;;10089435;29;20737;-75
2023/11/30 16:07:51;;;;;;;5.97;5.47;;;5.90;43.50;;;;;;10087857;29;20246;-75
2023/11/30 16:12:54;;;;;;;5.03;4.63;;;5.90;43.60;;;;;;10086799;29;20262;-76
2023/11/30 16:17:57;;;;;;;4.70;4.40;;;6.00;43.50;;;;;;10087604;29;20319;-76
2023/11/30 16:23:02;;;;;;;4.70;4.30;;;6.00;43.50;;;;;;10087478;29;20234;-76
2023/11/30 16:28:06;;;;;;;4.93;4.47;;;6.00;43.60;;;;;;10092889;29;20318;-75
2023/11/30 16:33:09;;;;;;;5.43;5.03;;;6.00;43.50;;;;;;10084687;29;20247;-76
2023/11/30 16:38:15;;;;;;;6.17;5.53;;;6.00;43.50;;;;;;10089140;29;20231;-76
2023/11/30 16:43:18;;;;;;;6.13;5.63;;;5.90;43.50;;;;;;10084343;29;20241;-76
2023/11/30 16:48:21;;;;;;;6.03;5.53;;;5.90;43.40;;;;;;10087840;29;20238;-77
2023/11/30 16:53:26;;;;;;;6.30;5.80;;;5.90;43.50;;;;;;10086994;29;20351;-76
2023/11/30 16:58:31;;;;;;;6.27;5.77;;;5.90;43.50;;;;;;10095922;29;20318;-78
2023/11/30 17:03:34;;;;;;;6.03;5.53;;;5.90;43.50;;;;;;10095920;29;20239;-77
2023/11/30 17:08:39;;;;;;;6.47;5.90;;;5.90;43.50;;;;;;10093625;29;20255;-77
2023/11/30 17:13:42;;;;;;;7.07;6.47;;;5.90;43.50;;;;;;10092851;29;20740;-77
2023/11/30 17:18:46;;;;;;;11.73;10.73;;;5.90;43.50;;;;;;10092503;29;20243;-77
2023/11/30 17:23:50;;;;;;;9.93;9.07;;;5.90;43.50;;;;;;10089592;29;20234;-77
2023/11/30 17:28:54;;;;;;;9.30;8.40;;;5.90;43.50;;;;;;10087502;29;20334;-77
2023/11/30 17:33:57;;;;;;;8.07;7.27;;;5.90;43.50;;;;;;10097070;29;20232;-77
2023/11/30 17:39:01;;;;;;;9.97;8.97;;;5.90;43.50;;;;;;10089099;29;20230;-77
2023/11/30 17:44:05;;;;;;;9.17;8.27;;;5.90;43.50;;;;;;10087967;29;20234;-77
2023/11/30 17:49:08;;;;;;;9.10;8.20;;;5.80;43.40;;;;;;10087948;29;20793;-77
2023/11/30 17:54:13;;;;;;;9.73;8.83;;;5.70;43.30;;;;;;10088709;29;20287;-77
2023/11/30 17:59:16;;;;;;;9.80;9.00;;;5.60;43.20;;;;;;10092565;29;20238;-77
2023/11/30 18:04:19;;;;;;;10.93;9.93;;;5.60;43.30;;;;;;10084087;29;20234;-76
2023/11/30 18:09:24;;;;;;;10.97;9.97;;;5.60;43.30;;;;;;10086377;29;20279;-76
2023/11/30 18:14:32;;;;;;;10.37;9.47;;;5.60;43.50;;;;;;10088723;29;20247;-76
2023/11/30 18:19:35;;;;;;;35.37;29.90;;;5.60;43.30;;;;;;10092181;29;20782;-75
2023/11/30 18:24:39;;;;;;;17.97;16.20;;;5.60;43.30;;;;;;10086767;29;20790;-75
2023/11/30 18:29:43;;;;;;;12.47;11.37;;;5.60;43.60;;;;;;10092333;29;20730;-75
2023/11/30 18:34:46;;;;;;;12.43;11.33;;;5.60;43.60;;;;;;10094626;29;20793;-75
2023/11/30 18:39:50;;;;;;;10.50;9.60;;;5.60;43.50;;;;;;10094063;29;20765;-75
2023/11/30 18:44:54;;;;;;;10.30;9.40;;;5.60;43.40;;;;;;10092955;29;20601;-77
2023/11/30 18:49:57;;;;;;;9.60;8.80;;;5.60;43.20;;;;;;10093931;29;20321;-77
2023/11/30 18:55:02;;;;;;;9.10;8.40;;;5.60;43.20;;;;;;10094022;29;20243;-77
2023/11/30 19:00:07;;;;;;;10.60;9.80;;;5.60;43.40;;;;;;10094230;29;20243;-77
2023/11/30 19:05:11;;;;;;;10.90;10.00;;;5.50;43.30;;;;;;10095181;29;20246;-77
2023/11/30 19:10:16;;;;;;;11.57;10.53;;;5.50;43.30;;;;;;10109043;29;20275;-77
2023/11/30 19:15:20;;;;;;;10.77;9.87;;;5.50;43.60;;;;;;10093752;29;20251;-77
2023/11/30 19:20:23;;;;;;;10.90;10.00;;;5.60;43.70;;;;;;10093323;29;20241;-77
2023/11/30 19:25:27;;;;;;;10.47;9.60;;;5.60;43.70;;;;;;10091281;29;20249;-76
2023/11/30 19:30:30;;;;;;;10.67;9.77;;;5.60;43.80;;;;;;10081715;29;20231;-76
2023/11/30 19:35:35;;;;;;;9.60;8.80;;;5.70;43.70;;;;;;10091513;29;20243;-76
2023/11/30 19:40:40;;;;;;;10.53;9.53;;;5.70;43.70;;;;;;10091635;29;20247;-78
2023/11/30 19:45:44;;;;;;;10.23;9.33;;;5.70;43.80;;;;;;10095427;29;20239;-73
2023/11/30 19:50:47;;;;;;;10.13;9.30;;;5.70;43.60;;;;;;10088748;29;20672;-74
2023/11/30 19:55:52;;;;;;;11.30;10.37;;;5.80;43.60;;;;;;10090948;29;20294;-75
2023/11/30 20:00:55;;;;;;;10.73;9.80;;;5.80;43.60;;;;;;10090902;29;20318;-75
2023/11/30 20:06:00;;;;;;;10.97;10.07;;;5.80;43.60;;;;;;10090352;29;20665;-76
2023/11/30 20:11:07;;;;;;;12.33;11.23;;;5.90;43.90;;;;;;10090010;29;20325;-76
2023/11/30 20:16:11;;;;;;;15.50;13.93;;;5.90;44.70;;;;;;10091765;29;20257;-77
2023/11/30 20:21:17;;;;;;;13.37;12.13;;;5.90;43.60;;;;;;10094093;29;20295;-78
2023/11/30 20:26:24;;;;;;;13.40;12.20;;;5.90;43.70;;;;;;10090903;29;20262;-77
2023/11/30 20:31:27;;;;;;;14.67;13.37;;;5.90;43.80;;;;;;10089180;29;20859;-73
2023/11/30 20:36:31;;;;;;;12.87;11.67;;;5.90;43.50;;;;;;10087220;29;20294;-76
2023/11/30 20:41:36;;;;;;;15.20;13.80;;;5.90;43.50;;;;;;10088119;29;20295;-76
2023/11/30 20:46:39;;;;;;;15.53;14.13;;;5.90;43.60;;;;;;10089170;29;20243;-77
2023/11/30 20:51:43;;;;;;;12.63;11.47;;;5.90;43.50;;;;;;10092824;29;20616;-78
2023/11/30 20:56:48;;;;;;;15.20;13.70;;;5.90;43.50;;;;;;10087738;29;20247;-75
2023/11/30 21:01:51;;;;;;;16.13;14.53;;;5.90;43.50;;;;;;10083398;29;20253;-75
2023/11/30 21:06:55;;;;;;;18.13;16.23;;;6.00;43.50;;;;;;10084968;29;20314;-75
2023/11/30 21:12:00;;;;;;;14.10;12.80;;;5.90;43.50;;;;;;10079989;29;20235;-75
2023/11/30 21:17:03;;;;;;;12.87;11.57;;;5.90;43.50;;;;;;10085698;29;20241;-76
2023/11/30 21:22:07;;;;;;;13.17;11.97;;;5.90;43.50;;;;;;10084025;29;20891;-76
2023/11/30 21:27:12;;;;;;;13.93;12.63;;;5.90;43.50;;;;;;10083976;29;20244;-76
2023/11/30 21:32:15;;;;;;;13.47;12.10;;;5.80;43.60;;;;;;10083491;29;20238;-76
2023/11/30 21:37:18;;;;;;;13.00;11.80;;;5.80;43.40;;;;;;10082761;29;20235;-77
2023/11/30 21:42:26;;;;;;;13.60;12.40;;;5.80;43.40;;;;;;10083447;29;20249;-78
2023/11/30 21:47:30;;;;;;;11.67;10.57;;;5.80;43.70;;;;;;10077841;29;20239;-76
2023/11/30 21:52:33;;;;;;;13.33;12.10;;;5.80;43.40;;;;;;10082135;29;20249;-75
2023/11/30 21:57:37;;;;;;;13.00;11.77;;;5.80;43.40;;;;;;10083850;29;20235;-76
2023/11/30 22:02:43;;;;;;;12.50;11.37;;;5.80;43.60;;;;;;10081304;29;20242;-75
2023/11/30 22:07:47;;;;;;;13.83;12.63;;;5.70;43.60;;;;;;10081942;29;20673;-75
2023/11/30 22:12:52;;;;;;;12.17;11.10;;;5.70;43.70;;;;;;10078862;29;20834;-75
2023/11/30 22:17:56;;;;;;;13.10;11.73;;;5.80;43.90;;;;;;10081252;29;20246;-75
2023/11/30 22:22:59;;;;;;;12.53;11.33;;;5.80;43.90;;;;;;10078455;29;20737;-75
2023/11/30 22:28:04;;;;;;;12.40;11.30;;;5.80;43.90;;;;;;10086451;29;20313;-76
2023/11/30 22:33:07;;;;;;;12.23;11.17;;;5.80;44.00;;;;;;10082072;29;20235;-75
2023/11/30 22:38:11;;;;;;;11.50;10.50;;;5.90;43.70;;;;;;10081009;29;20245;-75
2023/11/30 22:43:16;;;;;;;11.93;10.83;;;5.90;43.70;;;;;;10082248;29;20239;-75
2023/11/30 22:48:20;;;;;;;11.50;10.53;;;5.90;44.00;;;;;;10082148;29;20322;-75
2023/11/30 22:53:23;;;;;;;11.50;10.50;;;5.90;43.90;;;;;;10084448;29;20278;-74
2023/11/30 22:58:27;;;;;;;13.23;12.03;;;5.90;43.70;;;;;;10085327;29;20270;-75
2023/11/30 23:03:31;;;;;;;13.07;11.87;;;5.90;43.80;;;;;;10082533;29;20247;-75
2023/11/30 23:08:34;;;;;;;12.17;11.17;;;6.00;43.90;;;;;;10083377;29;20250;-76
2023/11/30 23:13:39;;;;;;;12.67;11.53;;;6.00;43.70;;;;;;10082065;29;20253;-75
2023/11/30 23:18:42;;;;;;;11.90;10.80;;;6.00;43.80;;;;;;10089183;29;20239;-75
2023/11/30 23:23:45;;;;;;;12.50;11.37;;;6.00;43.70;;;;;;10087421;29;20279;-75
2023/11/30 23:28:50;;;;;;;12.30;11.20;;;6.00;43.60;;;;;;10091754;29;20230;-75
2023/11/30 23:33:56;;;;;;;13.13;11.93;;;6.00;43.80;;;;;;10091771;29;20672;-75
2023/11/30 23:39:04;;;;;;;13.03;11.90;;;6.00;43.80;;;;;;10090269;29;20243;-75
2023/11/30 23:44:08;;;;;;;13.57;12.37;;;6.00;43.80;;;;;;10088948;29;20239;-74
2023/11/30 23:49:11;;;;;;;12.33;11.13;;;6.00;43.70;;;;;;10088653;29;20245;-75
2023/11/30 23:54:15;;;;;;;10.90;9.83;;;6.00;43.60;;;;;;10089118;29;20231;-74
2023/11/30 23:59:19;;;;;;;10.90;9.93;;;6.00;43.70;;;;;;10088132;29;20253;-76
